TULLOCH (TUL)

Elevation: 515' · STANISLAUS R basin · Operator: US Bureau of Reclamation

Provisional data, subject to change.
Query executed Saturday at 6:06:54   clock

Select a sensor type for a plot of data.
Note: Reservoir Flows are daily averages.

Earlier

Date RES ELE    STORAGE    RES CHG    TOC STO    ABV TOC    OUTFLOW    INFLOW    EVAP    RIV REL    SPILL    DIS PWR   
 FEET   AF   AF   AF   AF   CFS   CFS   CFS   CFS   CFS   CFS  
03/31/2016 499.33 54588 -320 58667 -4079 1013 858 6 0 0 1013
04/01/2016 499.22 54471 -117 58806 -4335 1200 1147 6 0 0 1200
04/02/2016 499.23 54481 10 58944 -4463 1183 1193 5 0 0 1183
04/03/2016 500.34 55672 1191 59083 -3411 1661 2269 8 0 0 1661
04/04/2016 499.30 54556 -1116 59222 -4666 1408 852 7 28 0 1380
04/05/2016 499.32 54577 21 59361 -4784 1240 1258 7 48 0 1192
04/06/2016 500.86 56235 1658 59500 -3265 1287 2123 0 0 0 1287
04/07/2016 501.61 57060 825 59639 -2579 1226 1650 8 0 0 1226
04/08/2016 503.22 58861 1801 59778 -917 1162 2077 7 0 0 1162
04/09/2016 503.41 59077 216 59917 -840 1626 1741 6 0 0 1626
04/10/2016 502.86 58453 -624 60056 -1603 1530 1216 1 0 0 1530
04/11/2016 503.67 59374 921 60194 -820 1066 1532 2 35 0 1031
04/12/2016 504.42 60236 862 60333 -97 830 1270 5 0 0 830
04/13/2016 503.47 59146 -1090 60472 -1326 706 162 6 0 0 706
04/14/2016 504.19 59970 824 60611 -641 550 965 0 0 0 550
04/15/2016 504.66 60514 544 60750 -236 489 776 13 0 0 489
04/16/2016 503.93 59670 -844 60889 -1219 886 470 10 0 0 886
04/17/2016 503.72 59431 -239 61028 -1597 1099 986 7 0 0 1099
04/18/2016 503.70 59408 -23 61167 -1759 1239 1238 11 0 0 1239
04/19/2016 504.27 60062 654 61306 -1244 2520 2859 9 0 245 2275
04/20/2016 503.05 58667 -1395 61444 -2777 3917 3223 9 0 1477 2440
04/21/2016 504.09 59854 1187 61583 -1729 3345 3951 8 0 912 2433
04/22/2016 504.13 59900 46 61722 -1822 2991 3025 11 0 587 2404
04/23/2016 504.83 60710 810 61861 -1151 2468 2879 3 0 46 2422
04/24/2016 504.22 60005 -705 62000 -1995 2350 2003 8 0 0 2350
04/25/2016 503.87 59602 -403 62139 -2537 3474 3278 7 0 1136 2338
04/26/2016 503.17 58804 -798 62278 -3474 4154 3759 7 45 1796 2313
04/27/2016 503.05 58667 -137 62417 -3750 3501 3439 7 0 1103 2398
04/28/2016 505.00 60907 -- 62556 -1649 2899 4032 4 0 538 2361
04/29/2016 505.83 61883 976 62694 -811 2385 2884 7 0 0 2385
04/30/2016 -- -- -- -- -- -- -- -- -- -- --

Later | Latest

Warning! This data is preliminary and subject to revision.

Show TUL Map | Plot TUL Data | 1 Month TUL Data | Real-Time TUL Data | TUL Info